createdAt,value
2018-06-18T00:00:33.885Z,0
2018-06-18T00:01:44.180Z,0
2018-06-18T00:02:54.339Z,0
2018-06-18T00:04:04.550Z,0
2018-06-18T00:05:14.526Z,0
2018-06-18T00:06:24.685Z,0
2018-06-18T00:07:34.798Z,0
2018-06-18T00:08:44.935Z,0
2018-06-18T00:09:55.123Z,0
2018-06-18T00:11:05.289Z,0
2018-06-18T00:12:15.466Z,0
2018-06-18T00:13:25.673Z,0
2018-06-18T00:14:35.816Z,0
2018-06-18T00:15:45.802Z,0
2018-06-18T00:16:55.962Z,0
2018-06-18T00:18:06.431Z,0
2018-06-18T00:19:16.563Z,0
2018-06-18T00:20:26.713Z,0
2018-06-18T00:21:36.894Z,0
2018-06-18T00:22:47.093Z,0
2018-06-18T00:23:57.253Z,0
2018-06-18T00:25:07.408Z,0
2018-06-18T00:26:17.524Z,0
2018-06-18T00:27:27.671Z,0
2018-06-18T00:28:37.898Z,0
2018-06-18T00:29:48.081Z,0
2018-06-18T00:30:58.223Z,0
2018-06-18T00:32:08.344Z,0
2018-06-18T00:33:18.693Z,0
2018-06-18T00:34:28.862Z,0
2018-06-18T00:35:39.060Z,0
2018-06-18T00:36:49.236Z,0
2018-06-18T00:37:59.419Z,0
2018-06-18T00:39:09.718Z,0
2018-06-18T00:40:19.869Z,0
2018-06-18T00:41:30.067Z,0
2018-06-18T00:42:40.192Z,0
2018-06-18T00:43:50.317Z,0
2018-06-18T00:45:00.101Z,0
2018-06-18T00:46:10.268Z,0
2018-06-18T00:47:20.240Z,0
2018-06-18T00:48:30.385Z,0
2018-06-18T00:49:40.529Z,0
2018-06-18T00:50:50.694Z,0
2018-06-18T00:52:00.830Z,0
2018-06-18T00:53:11.011Z,0
2018-06-18T00:54:21.164Z,0
2018-06-18T00:55:31.344Z,0
2018-06-18T00:56:41.571Z,0
2018-06-18T00:57:51.554Z,0
2018-06-18T00:59:01.696Z,0
2018-06-18T01:00:11.842Z,0
2018-06-18T01:01:21.985Z,0
2018-06-18T01:02:32.193Z,0
2018-06-18T01:03:42.313Z,0
2018-06-18T01:04:52.448Z,0
2018-06-18T01:06:02.585Z,0
2018-06-18T01:07:12.853Z,0
2018-06-18T01:08:23.002Z,0
2018-06-18T01:09:33.190Z,0
2018-06-18T01:10:43.372Z,0
2018-06-18T01:11:53.550Z,0
2018-06-18T01:13:03.747Z,0
2018-06-18T01:14:13.993Z,0
2018-06-18T01:15:24.184Z,0
2018-06-18T01:16:34.354Z,0
2018-06-18T01:17:44.903Z,0
2018-06-18T01:18:55.053Z,0
2018-06-18T01:20:05.208Z,0
2018-06-18T01:21:15.325Z,0
2018-06-18T01:22:25.505Z,0
2018-06-18T01:23:35.715Z,0
2018-06-18T01:24:45.905Z,0
2018-06-18T01:25:56.202Z,0
2018-06-18T01:27:06.596Z,0
2018-06-18T01:28:16.715Z,0
2018-06-18T01:29:26.901Z,0
2018-06-18T01:30:37.057Z,0
2018-06-18T01:31:47.273Z,0
2018-06-18T01:32:57.513Z,0
2018-06-18T01:34:07.685Z,0
2018-06-18T01:35:17.926Z,0
2018-06-18T01:36:28.101Z,0
2018-06-18T01:37:38.290Z,0
2018-06-18T01:38:48.667Z,0
2018-06-18T01:39:58.851Z,0
2018-06-18T01:41:09.046Z,0
2018-06-18T01:42:19.304Z,0
2018-06-18T01:43:29.506Z,0
2018-06-18T01:44:39.716Z,0
2018-06-18T01:45:49.982Z,0
2018-06-18T01:47:00.149Z,0
2018-06-18T01:48:10.398Z,0
2018-06-18T01:49:20.695Z,0
2018-06-18T01:50:30.857Z,0
2018-06-18T01:51:40.995Z,0
2018-06-18T01:52:51.482Z,0
2018-06-18T01:54:01.611Z,0
2018-06-18T01:55:11.790Z,0
2018-06-18T01:56:21.963Z,0
2018-06-18T01:57:32.207Z,0
2018-06-18T01:58:42.164Z,0
2018-06-18T01:59:52.327Z,0
2018-06-18T02:01:02.479Z,0
2018-06-18T02:02:12.604Z,0
2018-06-18T02:03:22.764Z,0
2018-06-18T02:04:33.129Z,0
2018-06-18T02:05:43.312Z,0
2018-06-18T02:06:53.194Z,0
2018-06-18T02:08:03.580Z,0
2018-06-18T02:09:13.902Z,0
2018-06-18T02:10:24.189Z,0
2018-06-18T02:11:34.381Z,0
2018-06-18T02:12:44.565Z,0
2018-06-18T02:13:54.738Z,4
2018-06-18T02:15:04.605Z,4
2018-06-18T02:16:14.377Z,0
2018-06-18T02:17:24.616Z,4
2018-06-18T02:18:34.740Z,4
2018-06-18T02:19:44.875Z,4
2018-06-18T02:20:55.023Z,4
2018-06-18T02:22:05.160Z,4
2018-06-18T02:23:15.334Z,4
2018-06-18T02:24:25.488Z,4
2018-06-18T02:25:35.614Z,8
2018-06-18T02:26:45.951Z,8
2018-06-18T02:27:56.089Z,8
2018-06-18T02:29:06.229Z,12
2018-06-18T02:30:16.686Z,12
2018-06-18T02:31:26.461Z,12
2018-06-18T02:32:36.618Z,16
2018-06-18T02:33:46.749Z,20
2018-06-18T02:34:56.877Z,20
2018-06-18T02:36:07.049Z,20
2018-06-18T02:37:17.210Z,24
2018-06-18T02:38:27.597Z,24
2018-06-18T02:39:37.775Z,28
2018-06-18T02:40:47.976Z,36
2018-06-18T02:41:58.407Z,40
2018-06-18T02:43:08.552Z,48
2018-06-18T02:44:18.696Z,48
2018-06-18T02:45:28.609Z,52
2018-06-18T02:46:38.757Z,56
2018-06-18T02:47:48.899Z,60
2018-06-18T02:48:59.119Z,64
2018-06-18T02:50:09.272Z,72
2018-06-18T02:51:19.516Z,76
2018-06-18T02:52:29.819Z,84
2018-06-18T02:53:39.958Z,96
2018-06-18T02:54:49.846Z,108
2018-06-18T02:55:59.988Z,120
2018-06-18T02:57:10.154Z,132
2018-06-18T02:58:20.312Z,140
2018-06-18T02:59:30.475Z,152
2018-06-18T03:00:40.465Z,160
2018-06-18T03:01:50.276Z,176
2018-06-18T03:03:00.456Z,192
2018-06-18T03:04:10.594Z,212
2018-06-18T03:05:20.734Z,224
2018-06-18T03:06:30.831Z,232
2018-06-18T03:07:40.708Z,236
2018-06-18T03:08:50.845Z,244
2018-06-18T03:10:01.024Z,248
2018-06-18T03:11:11.016Z,248
2018-06-18T03:12:21.173Z,236
2018-06-18T03:13:31.071Z,220
2018-06-18T03:14:41.224Z,204
2018-06-18T03:15:51.616Z,188
2018-06-18T03:17:01.768Z,192
2018-06-18T03:18:11.947Z,212
2018-06-18T03:19:22.143Z,236
2018-06-18T03:20:32.351Z,260
2018-06-18T03:21:42.535Z,276
2018-06-18T03:22:52.663Z,292
2018-06-18T03:24:02.823Z,300
2018-06-18T03:25:12.693Z,320
2018-06-18T03:26:22.844Z,348
2018-06-18T03:27:32.968Z,376
2018-06-18T03:28:43.132Z,396
2018-06-18T03:29:53.325Z,416
2018-06-18T03:31:03.493Z,468
2018-06-18T03:32:13.637Z,520
2018-06-18T03:33:23.779Z,556
2018-06-18T03:34:33.916Z,568
2018-06-18T03:35:44.148Z,576
2018-06-18T03:36:54.320Z,572
2018-06-18T03:38:04.479Z,584
2018-06-18T03:39:14.727Z,592
2018-06-18T03:40:24.875Z,600
2018-06-18T03:41:35.168Z,584
2018-06-18T03:42:45.359Z,544
2018-06-18T03:43:55.585Z,492
2018-06-18T03:45:05.852Z,452
2018-06-18T03:46:16.080Z,412
2018-06-18T03:47:26.246Z,356
2018-06-18T03:48:36.123Z,324
2018-06-18T03:49:46.282Z,320
2018-06-18T03:50:56.438Z,340
2018-06-18T03:52:06.565Z,380
2018-06-18T03:53:17.017Z,400
2018-06-18T03:54:27.188Z,400
2018-06-18T03:55:37.592Z,356
2018-06-18T03:56:47.763Z,344
2018-06-18T03:57:58.915Z,380
2018-06-18T03:59:09.058Z,440
2018-06-18T04:00:19.192Z,492
2018-06-18T04:01:29.349Z,524
2018-06-18T04:02:39.232Z,532
2018-06-18T04:03:49.393Z,540
2018-06-18T04:04:59.720Z,568
2018-06-18T04:06:09.687Z,600
2018-06-18T04:07:19.952Z,628
2018-06-18T04:08:30.347Z,656
2018-06-18T04:09:40.563Z,676
2018-06-18T04:10:50.689Z,688
2018-06-18T04:12:01.051Z,708
2018-06-18T04:13:10.940Z,744
2018-06-18T04:14:21.272Z,796
2018-06-18T04:15:31.591Z,844
2018-06-18T04:16:41.972Z,864
2018-06-18T04:17:51.870Z,876
2018-06-18T04:19:02.011Z,880
2018-06-18T04:20:11.907Z,904
2018-06-18T04:21:22.051Z,968
2018-06-18T04:22:32.339Z,1068
2018-06-18T04:23:42.710Z,1184
2018-06-18T04:24:53.041Z,1260
2018-06-18T04:26:03.392Z,1320
2018-06-18T04:27:13.265Z,1440
2018-06-18T04:28:23.381Z,1608
2018-06-18T04:29:33.532Z,1840
2018-06-18T04:30:43.678Z,2044
2018-06-18T04:31:53.912Z,2184
2018-06-18T04:33:03.784Z,2228
2018-06-18T04:34:13.437Z,2272
2018-06-18T04:35:23.587Z,2316
2018-06-18T04:36:33.740Z,2360
2018-06-18T04:37:44.389Z,2448
2018-06-18T04:38:54.119Z,2548
2018-06-18T04:40:04.315Z,2692
2018-06-18T04:41:14.481Z,2764
2018-06-18T04:42:24.620Z,2872
2018-06-18T04:43:34.967Z,3024
2018-06-18T04:44:45.369Z,3196
2018-06-18T04:45:55.569Z,3288
2018-06-18T04:47:05.956Z,3376
2018-06-18T04:48:16.316Z,3428
2018-06-18T04:49:26.536Z,3496
2018-06-18T04:50:36.694Z,3508
2018-06-18T04:51:47.084Z,3552
2018-06-18T04:52:57.205Z,3664
2018-06-18T04:54:07.098Z,3812
2018-06-18T04:55:17.233Z,3864
2018-06-18T04:56:27.786Z,3800
2018-06-18T04:57:38.171Z,3716
2018-06-18T04:58:48.352Z,3656
2018-06-18T04:59:58.594Z,3708
2018-06-18T05:01:08.998Z,3844
2018-06-18T05:02:19.158Z,3976
2018-06-18T05:03:29.513Z,3944
2018-06-18T05:04:39.665Z,3984
2018-06-18T05:05:49.785Z,3984
2018-06-18T05:06:59.932Z,3996
2018-06-18T05:08:11.111Z,3984
2018-06-18T05:09:21.263Z,3928
2018-06-18T05:10:31.421Z,3948
2018-06-18T05:11:41.580Z,4036
2018-06-18T05:12:52.066Z,4120
2018-06-18T05:14:02.398Z,4204
2018-06-18T05:15:12.569Z,4556
2018-06-18T05:16:22.732Z,5316
2018-06-18T05:17:32.870Z,5900
2018-06-18T05:18:44.092Z,6052
2018-06-18T05:19:54.458Z,5924
2018-06-18T05:21:04.632Z,5796
2018-06-18T05:22:14.769Z,5660
2018-06-18T05:23:24.929Z,5528
2018-06-18T05:24:35.084Z,5528
2018-06-18T05:25:45.349Z,5652
2018-06-18T05:26:55.498Z,5992
2018-06-18T05:28:05.675Z,6348
2018-06-18T05:29:15.818Z,5904
2018-06-18T05:30:25.987Z,5960
2018-06-18T05:31:36.152Z,5880
2018-06-18T05:32:46.314Z,5800
2018-06-18T05:33:59.468Z,5696
2018-06-18T05:35:09.666Z,5740
2018-06-18T05:36:22.288Z,5700
2018-06-18T05:37:32.463Z,5600
2018-06-18T05:38:42.702Z,5440
2018-06-18T05:39:52.900Z,5300
2018-06-18T05:41:03.072Z,5328
2018-06-18T05:42:13.235Z,5388
2018-06-18T05:43:23.651Z,5380
2018-06-18T05:44:33.846Z,5268
2018-06-18T05:45:44.006Z,5116
2018-06-18T05:46:54.138Z,4852
2018-06-18T05:48:04.281Z,4548
2018-06-18T05:49:14.459Z,4292
2018-06-18T05:50:24.760Z,4104
2018-06-18T05:51:35.113Z,3796
2018-06-18T05:52:45.365Z,4312
2018-06-18T05:53:55.586Z,3676
2018-06-18T05:55:05.767Z,3932
2018-06-18T05:56:15.303Z,4456
2018-06-18T05:57:25.439Z,4424
2018-06-18T05:58:35.897Z,4580
2018-06-18T05:59:46.073Z,4584
2018-06-18T06:00:56.249Z,4572
2018-06-18T06:02:06.061Z,4540
2018-06-18T06:03:16.251Z,4516
2018-06-18T06:04:26.396Z,4512
2018-06-18T06:05:36.521Z,4548
2018-06-18T06:06:46.685Z,4596
2018-06-18T06:07:56.841Z,4636
2018-06-18T06:09:07.020Z,4656
2018-06-18T06:10:17.219Z,4656
2018-06-18T06:11:27.441Z,4680
2018-06-18T06:12:37.683Z,4708
2018-06-18T06:13:48.524Z,4732
2018-06-18T06:14:58.754Z,4740
2018-06-18T06:16:08.912Z,4744
2018-06-18T06:17:19.064Z,4752
2018-06-18T06:18:29.303Z,4756
2018-06-18T06:19:39.456Z,4784
2018-06-18T06:20:49.651Z,4792
2018-06-18T06:21:59.843Z,4792
2018-06-18T06:23:09.994Z,4816
2018-06-18T06:24:19.565Z,4848
2018-06-18T06:25:29.946Z,4856
2018-06-18T06:26:40.293Z,4860
2018-06-18T06:27:50.621Z,4888
2018-06-18T06:29:00.803Z,4916
2018-06-18T06:30:11.007Z,4932
2018-06-18T06:31:21.196Z,4936
2018-06-18T06:32:31.396Z,4928
2018-06-18T06:33:41.683Z,4912
2018-06-18T06:34:51.854Z,4904
2018-06-18T06:36:01.789Z,4896
2018-06-18T06:37:11.956Z,4880
2018-06-18T06:38:22.099Z,4848
2018-06-18T06:39:32.470Z,4840
2018-06-18T06:40:42.333Z,4820
2018-06-18T06:41:52.476Z,4828
2018-06-18T06:43:02.621Z,4880
2018-06-18T06:44:12.819Z,4892
2018-06-18T06:45:22.996Z,4864
2018-06-18T06:46:33.196Z,4864
2018-06-18T06:47:43.338Z,4884
2018-06-18T06:48:53.838Z,4936
2018-06-18T06:50:04.201Z,4996
2018-06-18T06:51:14.370Z,5016
2018-06-18T06:52:24.556Z,5032
2018-06-18T06:53:35.001Z,5256
2018-06-18T06:54:45.146Z,5516
2018-06-18T06:55:55.464Z,5388
2018-06-18T06:57:05.334Z,4956
2018-06-18T06:58:16.492Z,4688
2018-06-18T06:59:26.656Z,4932
2018-06-18T07:00:36.820Z,4900
2018-06-18T07:01:47.159Z,4852
2018-06-18T07:02:57.331Z,4908
2018-06-18T07:04:07.484Z,4820
2018-06-18T07:05:17.702Z,4768
2018-06-18T07:06:27.670Z,4716
2018-06-18T07:07:37.832Z,4620
2018-06-18T07:08:48.031Z,4568
2018-06-18T07:09:58.191Z,4588
2018-06-18T07:11:08.448Z,4544
2018-06-18T07:12:18.600Z,4492
2018-06-18T07:13:29.083Z,4468
2018-06-18T07:14:39.400Z,4460
2018-06-18T07:15:49.619Z,4456
2018-06-18T07:16:59.903Z,4480
2018-06-18T07:18:10.176Z,4508
2018-06-18T07:19:19.968Z,4528
2018-06-18T07:20:30.122Z,4596
2018-06-18T07:21:40.471Z,4624
2018-06-18T07:22:50.666Z,4604
2018-06-18T07:24:00.869Z,4584
2018-06-18T07:25:10.823Z,4628
2018-06-18T07:26:21.245Z,4736
2018-06-18T07:27:31.491Z,4828
2018-06-18T07:28:41.614Z,4964
2018-06-18T07:29:51.827Z,5148
2018-06-18T07:31:02.242Z,5348
2018-06-18T07:32:12.371Z,5624
2018-06-18T07:33:22.923Z,6040
2018-06-18T07:34:32.829Z,6660
2018-06-18T07:35:43.936Z,7676
2018-06-18T07:36:54.145Z,9372
2018-06-18T07:38:04.322Z,11528
2018-06-18T07:39:14.508Z,13824
2018-06-18T07:40:24.678Z,16000
2018-06-18T07:41:34.860Z,17248
2018-06-18T07:42:45.028Z,17216
2018-06-18T07:43:55.177Z,18016
2018-06-18T07:45:05.333Z,17792
2018-06-18T07:46:15.542Z,17920
2018-06-18T07:47:25.724Z,17888
2018-06-18T07:48:35.963Z,17856
2018-06-18T07:49:46.184Z,18016
2018-06-18T07:50:56.459Z,18080
2018-06-18T07:52:06.704Z,18400
2018-06-18T07:53:16.919Z,18880
2018-06-18T07:54:27.064Z,18784
2018-06-18T07:55:37.219Z,18240
2018-06-18T07:56:47.390Z,17664
2018-06-18T07:57:57.573Z,17248
2018-06-18T07:59:07.759Z,16864
2018-06-18T08:00:17.953Z,16640
2018-06-18T08:01:28.109Z,16640
2018-06-18T08:02:38.298Z,16704
2018-06-18T08:03:48.574Z,16672
2018-06-18T08:04:58.751Z,16704
2018-06-18T08:06:08.922Z,16608
2018-06-18T08:07:19.307Z,16544
2018-06-18T08:08:29.248Z,16768
2018-06-18T08:09:39.505Z,16736
2018-06-18T08:10:49.799Z,16768
2018-06-18T08:11:59.988Z,17056
2018-06-18T08:13:10.309Z,17472
2018-06-18T08:15:32.978Z,17504
2018-06-18T08:16:42.796Z,17376
2018-06-18T08:17:52.987Z,17472
2018-06-18T08:19:03.239Z,17888
2018-06-18T08:20:13.477Z,18496
2018-06-18T08:22:36.256Z,19392
2018-06-18T08:23:46.665Z,20192
2018-06-18T08:24:56.887Z,21408
2018-06-18T08:26:07.072Z,22400
2018-06-18T08:27:17.332Z,23328
2018-06-18T08:28:27.934Z,22720
2018-06-18T08:29:38.092Z,22336
2018-06-18T08:30:48.261Z,22496
2018-06-18T08:31:58.455Z,22560
2018-06-18T08:33:08.594Z,22560
2018-06-18T08:34:18.764Z,22752
2018-06-18T08:35:29.229Z,22944
2018-06-18T08:36:39.421Z,23104
2018-06-18T08:37:49.586Z,22976
2018-06-18T08:38:59.781Z,22432
2018-06-18T08:40:10.083Z,22400
2018-06-18T08:41:20.450Z,22912
2018-06-18T08:42:30.596Z,23744
2018-06-18T08:43:40.791Z,23296
2018-06-18T08:44:51.011Z,24160
2018-06-18T08:46:01.236Z,27552
2018-06-18T08:47:11.418Z,24512
2018-06-18T08:48:21.659Z,24000
2018-06-18T08:49:31.806Z,24320
2018-06-18T08:50:42.204Z,26112
2018-06-18T08:51:52.467Z,25536
2018-06-18T08:53:02.592Z,24480
2018-06-18T08:54:12.736Z,24384
2018-06-18T08:55:23.082Z,24608
2018-06-18T08:56:33.254Z,24736
2018-06-18T08:57:43.194Z,25728
2018-06-18T08:58:53.490Z,25760
2018-06-18T09:00:03.802Z,26528
2018-06-18T09:01:13.801Z,26816
2018-06-18T09:02:24.012Z,28640
2018-06-18T09:03:34.157Z,36416
2018-06-18T09:04:44.535Z,40544
2018-06-18T09:05:54.692Z,43680
2018-06-18T09:07:04.840Z,44352
2018-06-18T09:08:15.093Z,61376
2018-06-18T09:09:25.263Z,62208
2018-06-18T09:10:35.611Z,46208
2018-06-18T09:11:45.788Z,37344
2018-06-18T09:12:55.980Z,42592
2018-06-18T09:14:06.363Z,61472
2018-06-18T09:15:16.589Z,38144
2018-06-18T09:16:26.760Z,44704
2018-06-18T09:17:36.910Z,38976
2018-06-18T09:18:47.058Z,41056
2018-06-18T09:19:57.227Z,38272
2018-06-18T09:21:07.525Z,36896
2018-06-18T09:22:17.669Z,36512
2018-06-18T09:23:28.793Z,36864
2018-06-18T09:24:39.069Z,40736
2018-06-18T09:25:49.471Z,85536
2018-06-18T09:26:59.648Z,72320
2018-06-18T09:28:09.843Z,70752
2018-06-18T09:29:20.023Z,55648
2018-06-18T09:30:30.208Z,84448
2018-06-18T09:31:40.376Z,83872
2018-06-18T09:32:50.760Z,73952
2018-06-18T09:34:00.913Z,62496
2018-06-18T09:35:11.091Z,75552
2018-06-18T09:36:21.374Z,76320
2018-06-18T09:37:31.544Z,73792
2018-06-18T09:38:41.752Z,42752
2018-06-18T09:39:51.926Z,63456
2018-06-18T09:41:02.108Z,57728
2018-06-18T09:42:12.352Z,32704
2018-06-18T09:43:22.565Z,65120
2018-06-18T09:44:32.830Z,77760
2018-06-18T09:45:42.729Z,86336
2018-06-18T09:46:52.883Z,83488
2018-06-18T09:48:03.136Z,15744
2018-06-18T09:49:13.417Z,92960
2018-06-18T09:50:23.598Z,16512
2018-06-18T09:51:33.750Z,76224
2018-06-18T09:52:43.910Z,67232
2018-06-18T09:53:54.108Z,58304
2018-06-18T09:55:04.307Z,72288
2018-06-18T09:56:14.273Z,92704
2018-06-18T09:57:24.487Z,100800
2018-06-18T09:58:34.648Z,96000
2018-06-18T09:59:44.896Z,86016
2018-06-18T10:00:55.072Z,84032
2018-06-18T10:02:05.228Z,90688
2018-06-18T10:03:15.443Z,92096
2018-06-18T10:04:25.362Z,78944
2018-06-18T10:05:35.170Z,75680
2018-06-18T10:06:45.386Z,93600
2018-06-18T10:07:55.793Z,84096
2018-06-18T10:09:06.025Z,85088
2018-06-18T10:10:16.218Z,82880
2018-06-18T10:11:26.424Z,61632
2018-06-18T10:12:36.638Z,12008
2018-06-18T10:13:47.034Z,99104
2018-06-18T10:14:57.218Z,100992
2018-06-18T10:16:07.513Z,102976
2018-06-18T10:17:17.725Z,96480
2018-06-18T10:18:27.933Z,96288
2018-06-18T10:19:38.134Z,106688
2018-06-18T10:20:48.299Z,116992
2018-06-18T10:21:58.503Z,112768
2018-06-18T10:23:08.670Z,13980
2018-06-18T10:24:19.213Z,16832
2018-06-18T10:25:29.628Z,108992
2018-06-18T10:26:39.887Z,94720
2018-06-18T10:27:50.072Z,89536
2018-06-18T10:29:00.261Z,95008
2018-06-18T10:30:10.499Z,32096
2018-06-18T10:31:20.951Z,81536
2018-06-18T10:32:31.013Z,131392
2018-06-18T10:33:41.262Z,121472
2018-06-18T10:34:51.490Z,69728
2018-06-18T10:36:01.656Z,15712
2018-06-18T10:37:11.851Z,15072
2018-06-18T10:38:21.765Z,18400
2018-06-18T10:39:31.964Z,109216
2018-06-18T10:40:42.132Z,103616
2018-06-18T10:41:52.622Z,22496
2018-06-18T10:43:02.798Z,63136
2018-06-18T10:44:13.228Z,78240
2018-06-18T10:45:23.429Z,102304
2018-06-18T10:46:33.615Z,112672
2018-06-18T10:47:43.902Z,122240
2018-06-18T10:48:54.181Z,119872
2018-06-18T10:50:04.439Z,112256
2018-06-18T10:51:14.622Z,104736
2018-06-18T10:52:24.798Z,103872
2018-06-18T10:53:34.964Z,51392
2018-06-18T10:54:45.271Z,89440
2018-06-18T10:55:55.125Z,23712
2018-06-18T10:57:05.561Z,22016
2018-06-18T10:58:16.352Z,19712
2018-06-18T10:59:26.538Z,95584
2018-06-18T11:00:36.934Z,19584
2018-06-18T11:01:47.403Z,19840
2018-06-18T11:02:57.679Z,23776
2018-06-18T11:04:08.012Z,24704
2018-06-18T11:05:18.226Z,24416
2018-06-18T11:06:28.488Z,47520
2018-06-18T11:07:38.680Z,29504
2018-06-18T11:08:48.830Z,113952
2018-06-18T11:09:59.108Z,108608
2018-06-18T11:11:09.329Z,104768
2018-06-18T11:12:19.532Z,116800
2018-06-18T11:13:29.733Z,113280
2018-06-18T11:14:39.911Z,100256
2018-06-18T11:15:50.272Z,89568
2018-06-18T11:17:02.140Z,96128
2018-06-18T11:18:13.263Z,118272
2018-06-18T11:19:23.448Z,111680
2018-06-18T11:20:33.919Z,66944
2018-06-18T11:21:43.812Z,64224
2018-06-18T11:22:54.141Z,22272
2018-06-18T11:24:04.446Z,23104
2018-06-18T11:25:14.745Z,36448
2018-06-18T11:26:24.997Z,39584
2018-06-18T11:27:35.314Z,42752
2018-06-18T11:28:46.041Z,38048
2018-06-18T11:29:56.408Z,53120
2018-06-18T11:31:06.649Z,80544
2018-06-18T11:32:16.976Z,72928
2018-06-18T11:33:27.266Z,67744
2018-06-18T11:34:37.600Z,39392
2018-06-18T11:35:48.118Z,31488
2018-06-18T11:36:58.514Z,29440
2018-06-18T11:38:08.681Z,29472
2018-06-18T11:39:19.365Z,32736
2018-06-18T11:40:29.766Z,54784
2018-06-18T11:41:40.141Z,44064
2018-06-18T11:42:50.561Z,55040
2018-06-18T11:44:00.805Z,34592
2018-06-18T11:45:11.012Z,23648
2018-06-18T11:46:21.204Z,22528
2018-06-18T11:47:31.370Z,23648
2018-06-18T11:48:41.555Z,21280
2018-06-18T11:49:51.768Z,24672
2018-06-18T11:51:01.947Z,20832
2018-06-18T11:52:12.120Z,22208
2018-06-18T11:53:22.287Z,23712
2018-06-18T11:54:32.673Z,23968
2018-06-18T11:55:42.901Z,22784
2018-06-18T11:56:52.929Z,26048
2018-06-18T11:58:03.110Z,36768
2018-06-18T11:59:13.305Z,39968
2018-06-18T12:00:23.517Z,31520
2018-06-18T12:01:33.911Z,28672
2018-06-18T12:02:44.406Z,27008
2018-06-18T12:03:55.638Z,27520
2018-06-18T12:05:05.910Z,27328
2018-06-18T12:06:16.102Z,30784
2018-06-18T12:07:26.375Z,36288
2018-06-18T12:08:36.284Z,43744
2018-06-18T12:09:47.077Z,57056
2018-06-18T12:10:57.428Z,66176
2018-06-18T12:12:07.616Z,94624
2018-06-18T12:13:17.872Z,85568
2018-06-18T12:14:28.134Z,55328
2018-06-18T12:15:38.317Z,77696
2018-06-18T12:16:48.706Z,42432
2018-06-18T12:17:59.178Z,45504
2018-06-18T12:19:09.369Z,45280
2018-06-18T12:20:19.321Z,48064
2018-06-18T12:21:29.504Z,101760
2018-06-18T12:22:39.751Z,65344
2018-06-18T12:23:49.926Z,71488
2018-06-18T12:25:00.198Z,56384
2018-06-18T12:26:10.350Z,46336
2018-06-18T12:27:20.516Z,50752
2018-06-18T12:28:30.918Z,54400
2018-06-18T12:29:41.105Z,54592
2018-06-18T12:30:51.274Z,46944
2018-06-18T12:32:01.686Z,53184
2018-06-18T12:33:11.850Z,73856
2018-06-18T12:34:22.429Z,99360
2018-06-18T12:35:32.770Z,85696
2018-06-18T12:36:42.990Z,80256
2018-06-18T12:37:53.169Z,91584
2018-06-18T12:39:03.393Z,104736
2018-06-18T12:40:13.588Z,99424
2018-06-18T12:41:24.262Z,84800
2018-06-18T12:42:34.658Z,80928
2018-06-18T12:43:44.849Z,86528
2018-06-18T12:44:55.014Z,84000
2018-06-18T12:46:05.205Z,82304
2018-06-18T12:47:15.412Z,89184
2018-06-18T12:48:29.216Z,97792
2018-06-18T12:49:39.558Z,96864
2018-06-18T12:50:49.842Z,86400
2018-06-18T12:52:00.091Z,71072
2018-06-18T12:53:10.409Z,87712
2018-06-18T12:54:20.655Z,91424
2018-06-18T12:55:30.848Z,75168
2018-06-18T12:56:41.037Z,103392
2018-06-18T12:57:51.217Z,85216
2018-06-18T12:59:01.414Z,82816
2018-06-18T13:00:11.694Z,99232
2018-06-18T13:01:21.973Z,102048
2018-06-18T13:02:32.163Z,68416
2018-06-18T13:03:42.355Z,15264
2018-06-18T13:04:52.556Z,18464
2018-06-18T13:06:02.773Z,15616
2018-06-18T13:07:12.953Z,15104
2018-06-18T13:08:23.169Z,15456
2018-06-18T13:09:33.354Z,16704
2018-06-18T13:10:43.592Z,21472
2018-06-18T13:11:53.835Z,16672
2018-06-18T13:13:04.136Z,12944
2018-06-18T13:14:14.319Z,11420
2018-06-18T13:15:24.729Z,11936
2018-06-18T13:16:34.923Z,13408
2018-06-18T13:17:45.175Z,13528
2018-06-18T13:18:55.332Z,12712
2018-06-18T13:20:05.529Z,11356
2018-06-18T13:21:15.729Z,11176
2018-06-18T13:22:25.934Z,11480
2018-06-18T13:23:36.149Z,10896
2018-06-18T13:24:46.331Z,10380
2018-06-18T13:25:56.647Z,9712
2018-06-18T13:27:06.837Z,8748
2018-06-18T13:28:17.011Z,8968
2018-06-18T13:29:27.249Z,10784
2018-06-18T13:30:37.756Z,15072
2018-06-18T13:31:47.934Z,18400
2018-06-18T13:32:58.128Z,19776
2018-06-18T13:34:07.935Z,21280
2018-06-18T13:35:18.255Z,20096
2018-06-18T13:36:28.546Z,18048
2018-06-18T13:37:38.891Z,15840
2018-06-18T13:38:49.292Z,15744
2018-06-18T13:39:59.581Z,17856
2018-06-18T13:41:09.809Z,22880
2018-06-18T13:42:20.186Z,35168
2018-06-18T13:43:30.420Z,88896
2018-06-18T13:44:40.590Z,48832
2018-06-18T13:45:50.552Z,36608
2018-06-18T13:47:00.725Z,26944
2018-06-18T13:48:10.884Z,28736
2018-06-18T13:49:21.147Z,24768
2018-06-18T13:50:31.315Z,29472
2018-06-18T13:51:41.328Z,23776
2018-06-18T13:52:52.441Z,45984
2018-06-18T13:54:02.679Z,40448
2018-06-18T13:55:12.980Z,21344
2018-06-18T13:56:23.216Z,17664
2018-06-18T13:57:33.454Z,17920
2018-06-18T13:58:43.995Z,15520
2018-06-18T13:59:54.170Z,13976
2018-06-18T14:01:04.425Z,13772
2018-06-18T14:02:14.351Z,15392
2018-06-18T14:03:24.585Z,18272
2018-06-18T14:04:34.788Z,51008
2018-06-18T14:05:45.027Z,27488
2018-06-18T14:06:55.264Z,22208
2018-06-18T14:08:05.505Z,18176
2018-06-18T14:09:15.680Z,14560
2018-06-18T14:10:26.002Z,13012
2018-06-18T14:11:36.197Z,12680
2018-06-18T14:12:46.608Z,12900
2018-06-18T14:13:57.214Z,29376
2018-06-18T14:15:07.432Z,15008
2018-06-18T14:16:17.628Z,14368
2018-06-18T14:17:27.871Z,14816
2018-06-18T14:18:38.079Z,54560
2018-06-18T14:19:48.552Z,22176
2018-06-18T14:20:58.962Z,46048
2018-06-18T14:22:09.170Z,57664
2018-06-18T14:23:19.376Z,25440
2018-06-18T14:24:29.530Z,47904
2018-06-18T14:25:39.740Z,49760
2018-06-18T14:26:49.930Z,52960
2018-06-18T14:28:00.249Z,55392
2018-06-18T14:29:10.501Z,16640
2018-06-18T14:30:20.699Z,17920
2018-06-18T14:31:30.912Z,18912
2018-06-18T14:32:41.246Z,20288
2018-06-18T14:33:51.459Z,24256
2018-06-18T14:35:01.622Z,28448
2018-06-18T14:36:11.965Z,23744
2018-06-18T14:37:22.304Z,52064
2018-06-18T14:38:32.556Z,23168
2018-06-18T14:39:42.862Z,17504
2018-06-18T14:40:53.075Z,16768
2018-06-18T14:42:03.435Z,17408
2018-06-18T14:43:13.673Z,15168
2018-06-18T14:44:24.135Z,13256
2018-06-18T14:45:34.352Z,12120
2018-06-18T14:46:44.402Z,12332
2018-06-18T14:47:54.699Z,13700
2018-06-18T14:49:04.892Z,15136
2018-06-18T14:50:15.047Z,22528
2018-06-18T14:51:25.661Z,37728
2018-06-18T14:52:36.217Z,16608
2018-06-18T14:53:46.542Z,13844
2018-06-18T14:54:56.741Z,12668
2018-06-18T14:56:07.108Z,12008
2018-06-18T14:57:17.690Z,12812
2018-06-18T14:58:27.986Z,13696
2018-06-18T14:59:38.428Z,15872
2018-06-18T15:00:48.933Z,16416
2018-06-18T15:01:59.273Z,25824
2018-06-18T15:03:09.385Z,12584
2018-06-18T15:04:20.177Z,14484
2018-06-18T15:05:30.811Z,17376
2018-06-18T15:06:41.027Z,11976
2018-06-18T15:07:51.211Z,10780
2018-06-18T15:09:01.749Z,10612
2018-06-18T15:10:12.291Z,9424
2018-06-18T15:11:22.459Z,9104
2018-06-18T15:12:32.780Z,8516
2018-06-18T15:13:43.225Z,7404
2018-06-18T15:14:53.511Z,8224
2018-06-18T15:16:04.058Z,8492
2018-06-18T15:17:14.596Z,8988
2018-06-18T15:18:24.789Z,9880
2018-06-18T15:19:35.179Z,11388
2018-06-18T15:20:45.911Z,14032
2018-06-18T15:21:56.372Z,15424
2018-06-18T15:23:06.603Z,16032
2018-06-18T15:24:17.017Z,15232
2018-06-18T15:25:27.271Z,13148
2018-06-18T15:26:37.546Z,12720
2018-06-18T15:27:47.945Z,12912
2018-06-18T15:28:58.182Z,12792
2018-06-18T15:30:08.362Z,12588
2018-06-18T15:31:18.619Z,12440
2018-06-18T15:32:29.175Z,12700
2018-06-18T15:33:39.432Z,12732
2018-06-18T15:34:49.623Z,12196
2018-06-18T15:35:59.483Z,11664
2018-06-18T15:37:09.810Z,11432
2018-06-18T15:38:20.409Z,11088
2018-06-18T15:39:31.113Z,11080